Knox, NY (12107)

9:40 AM EST on January 30, 2015 (GMT -0500)
Beebe Road - Elevation 1276 ft | Change Station
CLOSE
Current Station
Personal Weather Station
Location: Knox, NY
Elevation: 1276 ft
Nearby Weather Stations

Elev 1276 ft 42.68 °N, 74.14 °W | Updated 1 minute ago

Snow
Snow
25.5 °F
Feels Like 19 °F
N
5.0
Wind Variable Wind from NW
Gusts 11.0 mph

Today
High -- | Low -- °F
--% Chance of Precip.
Yesterday
High -- | Low -- °F
Precip. -- in
7:13 AM 5:06 PM
Waxing Gibbous, 83% visible
Pressure 29.83 in
Visibility 7.0 miles
Clouds Scattered Clouds 600 ft
Overcast 2000 ft
Windchill 19 °F
Dew Point 22 °F
Humidity 88%
Rainfall 0.00 in
Snow Depth Not available.
UV 0 out of 12
Pollen .10 out of 12
Air Quality Not available.
Flu Activity Not available.
METAR KSCH 301248Z 00000KT 7SM SCT006 OVC020 M03/M04 A2983

More Conditions Fewer Conditions

Pressure 29.83 in
Visibility 7.0 miles
Clouds Scattered Clouds 600 ft
Overcast 2000 ft
Windchill 19 °F
Dew Point 22 °F
Humidity 88%
Rainfall 0.00 in
Snow Depth Not available.
UV 0 out of 12
Pollen .10 out of 12
Air Quality Not available.
Flu Activity Not available.
METAR KSCH 301248Z 00000KT 7SM SCT006 OVC020 M03/M04 A2983

More Conditions Fewer Conditions

10-Day Weather Forecast

Almanac

Astronomy

Jan. 30, 2015 Rise Set
Actual Time
Civil Twilight
Nautical Twilight
Astronomical Twilight
Moon
Length of Visible Light
Length of Day
Tomorrow will be .
, % of the Moon is Illuminated

Today's Extremes

State Highs State Lows

Community

WunderPhotos

Upload Photos

1,791,768 photos uploaded!

WunderBlogs® & News

Nearby

Air Quality

  Air Quality AQ Index Pollutant
Not available.

Snow Depth

Station Depth Elevation

Earthquake Activity

City Distance Mag. Time & Date
Minimum magnitude displayed is 2.5.

Coastal Water Temperatures

Place Temperature

Nearby Weather Stations